Shevlin, MN (56676)

4:37 AM CST on February 21, 2017 (GMT -0600)
Shevlin | | Change Station

Elev 1486 ft 47.53 °N, 95.29 °W | Updated 18 seconds ago

Mostly Cloudy
Mostly Cloudy
32.0 °F
Feels Like 32 °F
N
0.0
Wind Variable Wind from WNW
Gusts 0.0 mph

Today
High -- | Low -- °F
--% Chance of Precip.
Yesterday
High -- | Low -- °F
Precip. -- in
Pressure 29.76 in
Visibility 0.2 miles
Clouds Overcast 200 ft
Windchill 32 °F
Dew Point 32 °F
Humidity 99%
Rainfall 0.00 in
Snow Depth Not available.
7:15 AM 5:54 PM
Waning Crescent, 26% visible
METAR KBJI 211033Z AUTO 11003KT M1/4SM FZFG OVC002 M01/M01 A2976 RMK AO2 T10141014
Pressure 29.76 in
Visibility 0.2 miles
Clouds Overcast 200 ft
Windchill 32 °F
Dew Point 32 °F
Humidity 99%
Rainfall 0.00 in
Snow Depth Not available.
7:15 AM 5:54 PM
Waning Crescent, 26% visible
METAR KBJI 211033Z AUTO 11003KT M1/4SM FZFG OVC002 M01/M01 A2976 RMK AO2 T10141014

Get Your Daily Forecast Email!

Thanks for signing up!

Be on the lookout for a verification email in your inbox.

You'll start receiving the daily forecast at 8 AM.

×

10-Day Weather Forecast

Almanac

Astronomy

Feb. 21, 2017 Rise Set
Actual Time
Civil Twilight
Nautical Twilight
Astronomical Twilight
Moon
Length of Visible Light
Length of Day
Tomorrow will be .
, % of the Moon is Illuminated

Today's Extremes

State Highs State Lows

Community

WunderPhotos

Upload Photos

1,962,540 photos uploaded!

WunderBlog® & News

Nearby

Air Quality

  Air Quality AQ Index Pollutant
Not available.

Snow Depth

Station Depth Elevation

Earthquake Activity

City Distance Mag. Time & Date
Minimum magnitude displayed is 2.5.

Coastal Water Temperatures

Place Temperature

Stations

Nearby Weather Stations

Station Location Temp. Windchill Dew Point Humidity Wind Precip. Elev Updated Type
                   

Watches & Warnings

There are currently no watches in effect.